^^
Station Historical Data
Daily Summary for January 13, 2018 Units:  English    Metric   Both
Next Day »
Daily Weekly Monthly Yearly Custom
  High: Low: Average:
Temperature: 83.1 °F 43.2 °F 61 °F
Dew Point: 40.1 °F 23 °F 33.8 °F
Humidity: 78% 11% 44%
Wind Speed: 6.9mph 0mph 2.1mph
Wind Gust: 6.9mph - -
Wind- - ESE
Pressure: 30.2 in 30.1 in -
Precipitation: 0 in    
Historical Graphs
 
 
Tabular Data for January 13, 2018
Time Temperature Dew Point Pressure Wind Wind Speed Wind Gust Humidity Rainfall Rate (Hourly) solar Conditions
00:02 48.6 °F 39.9 °F 30.2 in NE 1 mph 1 mph 72% 0 in 0.0 W/m2 CLR
00:16 48 °F 39.6 °F 30.2 in NE 2.3 mph 2.3 mph 72% 0 in 0.0 W/m2 CLR
00:22 48 °F 39.4 °F 30.2 in NE 1 mph 1 mph 72% 0 in 0.0 W/m2 CLR
00:27 47.8 °F 39.6 °F 30.2 in NE 1.2 mph   73% 0 in 0.0 W/m2 CLR
00:35 47.7 °F 39.7 °F 30.2 in NE 2.3 mph 2.3 mph 74% 0 in 0.0 W/m2 CLR
00:49 47.7 °F 39.7 °F 30.2 in NE 1.2 mph 1.2 mph 74% 0 in 0.0 W/m2 CLR
00:51 47.7 °F 39.7 °F 30.2 in NE 1.2 mph 1.2 mph 74% 0 in 0.0 W/m2 CLR
00:56 47.5 °F 39.9 °F 30.2 in NE 1.2 mph   75% 0 in 0.0 W/m2 CLR
01:02 47.5 °F 39.9 °F 30.2 in Calm     75% 0 in 0.0 W/m2 CLR
01:07 47.5 °F 39.9 °F 30.2 in NE 1.2 mph   75% 0 in 0.0 W/m2 CLR
01:12 47.7 °F 40.1 °F 30.2 in Calm     75% 0 in 0.0 W/m2 CLR
01:17 47.7 °F 40.1 °F 30.2 in Calm     75% 0 in 0.0 W/m2 CLR
01:52 46.8 °F 39.6 °F 30.2 in Calm     76% 0 in 0.0 W/m2 CLR
01:57 46.8 °F 39.6 °F 30.2 in Calm     76% 0 in 0.0 W/m2 CLR
02:03 46.6 °F 39.4 °F 30.2 in NE 1.2 mph 1.2 mph 76% 0 in 0.0 W/m2 CLR
02:09 46.2 °F 39.6 °F 30.2 in NE 1.2 mph   77% 0 in 0.0 W/m2 CLR
02:22 46 °F 39.6 °F 30.2 in NE 1.2 mph 1.2 mph 78% 0 in 0.0 W/m2 CLR
02:34 45.9 °F 39 °F 30.2 in NE 1.2 mph 1.2 mph 77% 0 in 0.0 W/m2 CLR
02:40 45.9 °F 39 °F 30.2 in Calm     77% 0 in 0.0 W/m2 CLR
02:49 45.7 °F 38.8 °F 30.2 in Calm     77% 0 in 0.0 W/m2 CLR
03:00 45.3 °F 38.8 °F 30.2 in Calm     78% 0 in 0.0 W/m2 CLR
03:07 45.3 °F 38.8 °F 30.2 in Calm     78% 0 in 0.0 W/m2 CLR
03:12 45.3 °F 38.8 °F 30.2 in NE 3 mph 3 mph 78% 0 in 0.0 W/m2 CLR
03:28 45.1 °F 37.9 °F 30.2 in Calm     76% 0 in 0.0 W/m2 CLR
03:35 45 °F 37.6 °F 30.2 in NE 1.2 mph   75% 0 in 0.0 W/m2 CLR
03:50 45 °F 37 °F 30.2 in NE 1.2 mph   74% 0 in 0.0 W/m2 CLR
03:56 45 °F 36.9 °F 30.2 in NE 2.3 mph 2.3 mph 73% 0 in 0.0 W/m2 CLR
04:04 45.1 °F 36.7 °F 30.2 in NE 1.2 mph 1.2 mph 72% 0 in 0.0 W/m2 CLR
04:28 45 °F 36.5 °F 30.2 in NE 1.2 mph 1.2 mph 72% 0 in 0.0 W/m2 CLR
04:33 45 °F 36.5 °F 30.2 in NE 1.2 mph   72% 0 in 0.0 W/m2 CLR
04:38 45 °F 36.5 °F 30.2 in NE 1.2 mph 1.2 mph 72% 0 in 0.0 W/m2 CLR
04:43 44.8 °F 36.7 °F 30.2 in NE 1.2 mph 1.2 mph 73% 0 in 0.0 W/m2 CLR
04:51 44.4 °F 36.3 °F 30.2 in NE 1.2 mph 1.2 mph 73% 0 in 0.0 W/m2 CLR
04:58 44.2 °F 36.1 °F 30.2 in Calm     73% 0 in 0.0 W/m2 CLR
05:11 44.1 °F 35.6 °F 30.2 in NE 1.2 mph 1.2 mph 72% 0 in 0.0 W/m2 CLR
05:18 44.1 °F 35.6 °F 30.2 in SE 2.3 mph 2.3 mph 72% 0 in 0.0 W/m2 CLR
05:23 44.1 °F 35.6 °F 30.2 in ESE 2.3 mph 2.3 mph 72% 0 in 0.0 W/m2 CLR
05:30 44.2 °F 35.4 °F 30.2 in ENE 1.2 mph 1.2 mph 71% 0 in 0.0 W/m2 CLR
05:40 44.2 °F 35.4 °F 30.2 in ENE 2.3 mph 2.3 mph 71% 0 in 0.0 W/m2 CLR
05:48 44.1 °F 35.2 °F 30.2 in Calm     71% 0 in 0.0 W/m2 CLR
05:59 43.9 °F 35.1 °F 30.2 in ENE 2.3 mph 2.3 mph 71% 0 in 0.0 W/m2 CLR
06:05 43.9 °F 35.1 °F 30.2 in ENE 1 mph 2 mph 71% 0 in 0.0 W/m2 CLR
06:11 43.9 °F 35.4 °F 30.2 in ENE 1.2 mph 1.2 mph 72% 0 in 0.0 W/m2 CLR
06:27 44.1 °F 35.2 °F 30.2 in ENE 3.5 mph 3.5 mph 71% 0 in 0.0 W/m2 CLR
06:35 44.1 °F 35.2 °F 30.2 in NE 3.5 mph 3.5 mph 71% 0 in 0.0 W/m2 CLR
06:40 44.2 °F 35.1 °F 30.2 in NE 1 mph 1 mph 70% 0 in 0.0 W/m2 CLR
06:45 44.1 °F 35.2 °F 30.2 in ESE 2.3 mph 2.3 mph 71% 0 in 0.0 W/m2 CLR
06:50 44.1 °F 35.2 °F 30.2 in ESE 1.2 mph 1.2 mph 71% 0 in 0.0 W/m2 CLR
06:57 43.9 °F 35.1 °F 30.2 in ESE 1.2 mph 1.2 mph 71% 0 in 0.0 W/m2 CLR
07:05 43.7 °F 34.9 °F 30.2 in Calm   0.1 mph 71% 0 in 0.0 W/m2 CLR
07:31 43.3 °F 35.1 °F 30.2 in ESE 1.2 mph 1.2 mph 72% 0 in 5.0 W/m2 CLR
07:36 43.5 °F 35.4 °F 30.2 in Calm     73% 0 in 9.0 W/m2 CLR
07:43 43.5 °F 35.4 °F 30.2 in ESE 1.2 mph 1.2 mph 73% 0 in 12.0 W/m2 CLR
07:48 43.3 °F 35.6 °F 30.2 in Calm     74% 0 in 19.0 W/m2 CLR
07:54 43.2 °F 35.4 °F 30.2 in ESE 1.2 mph 1.2 mph 74% 0 in 23.0 W/m2 CLR
07:59 43.2 °F 35.8 °F 30.2 in ENE 2 mph 2 mph 75% 0 in 28.0 W/m2 CLR
08:06 43.2 °F 35.8 °F 30.2 in ESE 1.2 mph 1.2 mph 75% 0 in 37.0 W/m2 CLR
08:17 43.3 °F 36.3 °F 30.2 in East 1.2 mph 1.2 mph 76% 0 in 51.0 W/m2 CLR
08:26 44.1 °F 36.7 °F 30.2 in East 1.2 mph 1.2 mph 75% 0 in 160.0 W/m2 CLR
08:31 44.4 °F 37 °F 30.2 in East 1.2 mph   75% 0 in 188.0 W/m2 CLR
08:48 47.8 °F 37.8 °F 30.2 in ESE 3.5 mph 3.5 mph 68% 0 in 260.0 W/m2 CLR
08:53 48.9 °F 37.6 °F 30.2 in SE 3.5 mph 3.5 mph 65% 0 in 281.0 W/m2 CLR
09:08 52.2 °F 37.4 °F 30.2 in East 2.3 mph   57% 0 in 336.0 W/m2 CLR
09:13 53.1 °F 37.2 °F 30.2 in East 3.5 mph 3.5 mph 55% 0 in 353.0 W/m2 CLR
09:22 54.1 °F 37.4 °F 30.2 in East 1.2 mph 1.2 mph 53% 0 in 374.0 W/m2 CLR
09:27 55 °F 37.2 °F 30.2 in ESE 3.5 mph 3.5 mph 51% 0 in 390.0 W/m2 CLR
09:43 57.2 °F 38.1 °F 30.2 in SE 2.3 mph 2.3 mph 49% 0 in 438.0 W/m2 CLR
09:51 58.5 °F 38.3 °F 30.2 in ESE 2.3 mph 2.3 mph 47% 0 in 459.0 W/m2 CLR
10:03 60.3 °F 38.1 °F 30.2 in East 4.6 mph 4.6 mph 44% 0 in 489.0 W/m2 CLR
10:16 62.1 °F 39.2 °F 30.2 in East 2.3 mph 2.3 mph 43% 0 in 524.0 W/m2 CLR
10:27 63.7 °F 38.8 °F 30.2 in NNE 1.2 mph 1.2 mph 40% 0 in 547.0 W/m2 CLR
10:44 66.7 °F 38.8 °F 30.2 in NNE 1.2 mph 1.2 mph 36% 0 in 759.0 W/m2 CLR
10:49 67.6 °F 39 °F 30.2 in NE 2.3 mph 2.3 mph 35% 0 in 752.0 W/m2 CLR
10:55 68.5 °F 38.1 °F 30.2 in NE 1.2 mph 1.2 mph 33% 0 in 807.0 W/m2 CLR
11:00 69.4 °F 38.1 °F 30.2 in NE 1.2 mph 1.2 mph 32% 0 in 793.0 W/m2 CLR
11:09 70.9 °F 38.7 °F 30.2 in NNE 2.3 mph   31% 0 in 705.0 W/m2 CLR
11:19 71.8 °F 35.1 °F 30.2 in SE 3.5 mph 3.5 mph 26% 0 in 642.0 W/m2 CLR
11:27 72.7 °F 34.7 °F 30.2 in ENE 3 mph 3 mph 25% 0 in 649.0 W/m2 CLR
11:32 73 °F 33.1 °F 30.2 in ENE 2.3 mph 2.3 mph 23% 0 in 654.0 W/m2 CLR
11:42 73.2 °F 32.2 °F 30.2 in ENE 1.2 mph 1.2 mph 22% 0 in 654.0 W/m2 CLR
11:47 73.8 °F 32.5 °F 30.2 in SSE 2.3 mph 2.3 mph 22% 0 in 657.0 W/m2 CLR
11:55 74.1 °F 31.6 °F 30.2 in SE 3.5 mph 3.5 mph 21% 0 in 671.0 W/m2 CLR
12:00 74.1 °F 32.9 °F 30.2 in ESE 2.3 mph 2.3 mph 22% 0 in 673.0 W/m2 CLR
12:05 74.3 °F 31.8 °F 30.2 in ENE 2.3 mph 2.3 mph 21% 0 in 673.0 W/m2 CLR
12:10 74.8 °F 32.4 °F 30.2 in South 3.5 mph 3.5 mph 21% 0 in 675.0 W/m2 CLR
12:18 75.4 °F 31.5 °F 30.2 in SE 6 mph 6 mph 20% 0 in 679.0 W/m2 CLR
12:26 75.7 °F 30.6 °F 30.2 in SE 4.6 mph 4.6 mph 19% 0 in 679.0 W/m2 CLR
12:33 76.3 °F 29.7 °F 30.1 in ENE 4.6 mph 4.6 mph 18% 0 in 679.0 W/m2 CLR
12:38 76.3 °F 29.7 °F 30.1 in NNE 3.5 mph 3.5 mph 18% 0 in 677.0 W/m2 CLR
12:46 76.8 °F 30 °F 30.1 in ESE 3.5 mph 3.5 mph 18% 0 in 677.0 W/m2 CLR
12:53 77.4 °F 29.1 °F 30.1 in East 4.6 mph 4.6 mph 17% 0 in 675.0 W/m2 CLR
12:58 77.2 °F 28.9 °F 30.1 in South 4 mph 4 mph 17% 0 in 670.0 W/m2 CLR
13:03 77.5 °F 29.1 °F 30.1 in East 3.5 mph 3.5 mph 17% 0 in 666.0 W/m2 CLR
13:10 78.1 °F 28 °F 30.1 in West 3.5 mph 3.5 mph 16% 0 in 663.0 W/m2 CLR
13:26 78.4 °F 28.6 °F 30.1 in SE 4.6 mph 4.6 mph 16% 0 in 649.0 W/m2 CLR
13:31 78.6 °F 27.1 °F 30.1 in NE 3.5 mph 3.5 mph 15% 0 in 645.0 W/m2 CLR
13:36 78.8 °F 27.1 °F 30.1 in South 3.5 mph 3.5 mph 15% 0 in 642.0 W/m2 CLR
13:44 78.6 °F 27.1 °F 30.1 in ESE 6.9 mph 6.9 mph 15% 0 in 631.0 W/m2 CLR
13:49 78.8 °F 27.1 °F 30.1 in NE 3 mph 3 mph 15% 0 in 622.0 W/m2 CLR
13:56 79.2 °F 25.9 °F 30.1 in SE 4.6 mph 4.6 mph 14% 0 in 605.0 W/m2 CLR
14:07 79.7 °F 26.2 °F 30.1 in SE 3.5 mph 3.5 mph 14% 0 in 587.0 W/m2 CLR
14:12 80.1 °F 26.4 °F 30.1 in East 2.3 mph 2.3 mph 14% 0 in 563.0 W/m2 CLR
14:17 80.2 °F 26.8 °F 30.1 in ENE 3.5 mph 3.5 mph 14% 0 in 563.0 W/m2 CLR
14:30 80.4 °F 25.2 °F 30.1 in ESE 3.5 mph 3.5 mph 13% 0 in 522.0 W/m2 CLR
14:35 80.2 °F 26.8 °F 30.1 in SSE 3.5 mph 3.5 mph 14% 0 in 512.0 W/m2 CLR
14:40 80.4 °F 27 °F 30.1 in ENE 3.5 mph 3.5 mph 14% 0 in 513.0 W/m2 CLR
14:47 81 °F 27.3 °F 30.1 in ENE 1.2 mph   14% 0 in 499.0 W/m2 CLR
14:52 81.7 °F 26.1 °F 30.1 in SSW 1 mph 1 mph 13% 0 in 473.0 W/m2 CLR
14:58 82 °F 24.4 °F 30.1 in ENE 1.2 mph 1.2 mph 12% 0 in 462.0 W/m2 CLR
15:15 81.3 °F 23.9 °F 30.1 in SSE 2.3 mph 2.3 mph 12% 0 in 429.0 W/m2 CLR
15:20 81.7 °F 24.1 °F 30.1 in SE 3.5 mph 3.5 mph 12% 0 in 420.0 W/m2 CLR
15:27 82 °F 24.4 °F 30.1 in SSW 1.2 mph   12% 0 in 397.0 W/m2 CLR
15:32 82 °F 24.4 °F 30.1 in Calm     12% 0 in 380.0 W/m2 CLR
15:38 82.2 °F 24.4 °F 30.1 in East 1.2 mph 1.2 mph 12% 0 in 364.0 W/m2 CLR
15:43 82.2 °F 24.6 °F 30.1 in East 1.2 mph   12% 0 in 346.0 W/m2 CLR
15:55 82.9 °F 25.2 °F 30.1 in East 1.2 mph 1.2 mph 12% 0 in 313.0 W/m2 CLR
16:02 83.1 °F 23.2 °F 30.1 in East 1.2 mph   11% 0 in 297.0 W/m2 CLR
16:17 82.9 °F 23 °F 30.1 in Calm     11% 0 in 229.0 W/m2 CLR
16:24 82.9 °F 25.2 °F 30.1 in East 1.2 mph 1.2 mph 12% 0 in 193.0 W/m2 CLR
16:39 82.2 °F 30 °F 30.1 in West 1.2 mph 1.2 mph 15% 0 in 134.0 W/m2 CLR
16:44 81.9 °F 32.7 °F 30.1 in NNW 2.3 mph 2.3 mph 17% 0 in 105.0 W/m2 CLR
16:56 80.2 °F 34.2 °F 30.1 in NW 3.5 mph 3.5 mph 19% 0 in 72.0 W/m2 CLR
17:01 79.3 °F 34.9 °F 30.1 in NW 2.3 mph 2.3 mph 20% 0 in 56.0 W/m2 CLR
17:06 78.8 °F 35.4 °F 30.1 in NW 1.2 mph 1.2 mph 21% 0 in 39.0 W/m2 CLR
17:14 78.1 °F 34.9 °F 30.1 in NW 1.2 mph 1.2 mph 21% 0 in 21.0 W/m2 CLR
17:19 77.7 °F 35.8 °F 30.1 in NW 2.3 mph 2.3 mph 22% 0 in 14.0 W/m2 CLR
17:25 77.4 °F 35.4 °F 30.1 in NW 1.2 mph 1.2 mph 22% 0 in 11.0 W/m2 CLR
17:32 76.6 °F 36.1 °F 30.1 in Calm     23% 0 in 7.0 W/m2 CLR
17:42 74.7 °F 37.4 °F 30.1 in WSW 2.3 mph 2.3 mph 26% 0 in 0.0 W/m2 CLR
17:50 72.9 °F 36.9 °F 30.1 in WSW 2.3 mph 2.3 mph 27% 0 in 0.0 W/m2 CLR
18:01 71.1 °F 37.2 °F 30.1 in WSW 2.3 mph 2.3 mph 29% 0 in 0.0 W/m2 CLR
18:06 70.7 °F 36.9 °F 30.1 in SW 3 mph 3 mph 29% 0 in 0.0 W/m2 CLR
18:12 70 °F 36.1 °F 30.1 in WSW 4 mph 4 mph 29% 0 in 0.0 W/m2 CLR
18:18 69.4 °F 36.7 °F 30.1 in WSW 2.3 mph 2.3 mph 30% 0 in 0.0 W/m2 CLR
18:27 68.9 °F 36.1 °F 30.1 in Calm     30% 0 in 0.0 W/m2 CLR
18:34 68.5 °F 35.8 °F 30.1 in Calm     30% 0 in 0.0 W/m2 CLR
18:42 67.8 °F 36.1 °F 30.1 in Calm     31% 0 in 0.0 W/m2 CLR
18:49 67.1 °F 35.4 °F 30.1 in Calm     31% 0 in 0.0 W/m2 CLR
18:54 66.6 °F 34.2 °F 30.1 in WSW 1 mph 1 mph 30% 0 in 0.0 W/m2 CLR
19:11 65.5 °F 33.1 °F 30.1 in WSW 1.2 mph   30% 0 in 0.0 W/m2 CLR
19:18 64.9 °F 31.8 °F 30.1 in WSW 1.2 mph 1.2 mph 29% 0 in 0.0 W/m2 CLR
19:36 63.9 °F 30.9 °F 30.1 in WSW 1.2 mph 1.2 mph 29% 0 in 0.0 W/m2 CLR
19:42 63.7 °F 30.7 °F 30.1 in NE 3.5 mph 3.5 mph 29% 0 in 0.0 W/m2 CLR
19:47 63.3 °F 30.6 °F 30.1 in NNE 1.2 mph 1.2 mph 29% 0 in 0.0 W/m2 CLR
19:54 63.3 °F 29.7 °F 30.1 in NE 3.5 mph 3.5 mph 28% 0 in 0.0 W/m2 CLR
20:01 63.7 °F 29.8 °F 30.1 in NNE 4.6 mph 4.6 mph 28% 0 in 0.0 W/m2 CLR
20:10 63.9 °F 30 °F 30.1 in NNE 6 mph 6 mph 28% 0 in 0.0 W/m2 CLR
20:17 63.9 °F 30 °F 30.1 in NNE 4 mph 4 mph 28% 0 in 0.0 W/m2 CLR
20:22 63.7 °F 30.7 °F 30.1 in NE 3.5 mph 3.5 mph 29% 0 in 0.0 W/m2 CLR
20:30 63.1 °F 30.4 °F 30.1 in NNE 3.5 mph 3.5 mph 29% 0 in 0.0 W/m2 CLR
20:40 62.4 °F 31.5 °F 30.1 in NE 3.5 mph 3.5 mph 31% 0 in 0.0 W/m2 CLR
20:48 61.9 °F 31.6 °F 30.1 in ENE 2.3 mph 2.3 mph 32% 0 in 0.0 W/m2 CLR
20:57 61 °F 31.6 °F 30.1 in ENE 2.3 mph 2.3 mph 33% 0 in 0.0 W/m2 CLR
21:06 60.1 °F 32.2 °F 30.1 in NNE 2.3 mph 2.3 mph 35% 0 in 0.0 W/m2 CLR
21:16 59.4 °F 32.4 °F 30.1 in NNE 1.2 mph 1.2 mph 36% 0 in 0.0 W/m2 CLR
21:29 58.6 °F 32.4 °F 30.1 in Calm     37% 0 in 0.0 W/m2 CLR
21:51 57 °F 32.4 °F 30.1 in NNE 4 mph 4 mph 39% 0 in 0.0 W/m2 CLR
22:00 56.7 °F 32 °F 30.1 in NE 3.5 mph 3.5 mph 39% 0 in 0.0 W/m2 CLR
22:10 56.5 °F 31.8 °F 30.1 in NE 3.5 mph 3.5 mph 39% 0 in 0.0 W/m2 CLR
22:16 56.5 °F 32.4 °F 30.1 in NE 3.5 mph 3.5 mph 40% 0 in 0.0 W/m2 CLR
22:20 56.1 °F 32.2 °F 30.1 in NE 3.5 mph 3.5 mph 40% 0 in 0.0 W/m2 CLR
22:26 55.9 °F 32 °F 30.1 in ENE 3.5 mph 3.5 mph 40% 0 in 0.0 W/m2 CLR
22:41 55.8 °F 32.4 °F 30.1 in NE 2.3 mph 2.3 mph 41% 0 in 0.0 W/m2 CLR
22:47 55.6 °F 32.2 °F 30.1 in NE 4.6 mph 4.6 mph 41% 0 in 0.0 W/m2 CLR
22:58 55 °F 32.4 °F 30.1 in NE 3.5 mph 3.5 mph 42% 0 in 0.0 W/m2 CLR
23:03 54.9 °F 32.2 °F 30.1 in NE 1.2 mph 1.2 mph 42% 0 in 0.0 W/m2 CLR
23:15 54.3 °F 32.7 °F 30.1 in NE 2.3 mph 2.3 mph 44% 0 in 0.0 W/m2 CLR
23:28 53.8 °F 32.4 °F 30.1 in NE 3.5 mph 3.5 mph 44% 0 in 0.0 W/m2 CLR
23:41 53.1 °F 32.4 °F 30.1 in NE 3.5 mph 3.5 mph 45% 0 in 0.0 W/m2 CLR
23:47 53.1 °F 32.2 °F 30.1 in NE 3.5 mph 3.5 mph 45% 0 in 0.0 W/m2 CLR
23:55 52.9 °F 32 °F 30.1 in NNE 1.2 mph 1.2 mph 45% 0 in 0.0 W/m2 CLR
Countryside Manor, Tucson, AZ, USA